createdAt,value
2018-05-21T00:00:08.052Z,0
2018-05-21T00:00:34.190Z,0
2018-05-21T00:01:00.331Z,0
2018-05-21T00:01:26.468Z,0
2018-05-21T00:01:52.611Z,0
2018-05-21T00:02:18.753Z,0
2018-05-21T00:02:44.889Z,0
2018-05-21T00:03:11.051Z,0
2018-05-21T00:03:37.195Z,0
2018-05-21T00:04:03.329Z,0
2018-05-21T00:04:29.496Z,0
2018-05-21T00:04:55.640Z,0
2018-05-21T00:05:21.782Z,0
2018-05-21T00:05:47.943Z,0
2018-05-21T00:06:14.113Z,0
2018-05-21T00:06:40.248Z,0
2018-05-21T00:07:06.393Z,0
2018-05-21T00:07:32.527Z,0
2018-05-21T00:07:58.666Z,0
2018-05-21T00:08:24.802Z,0
2018-05-21T00:08:50.971Z,0
2018-05-21T00:09:17.125Z,0
2018-05-21T00:09:43.271Z,0
2018-05-21T00:10:09.430Z,0
2018-05-21T00:10:35.571Z,0
2018-05-21T00:11:01.707Z,0
2018-05-21T00:11:27.850Z,0
2018-05-21T00:11:54.041Z,0
2018-05-21T00:12:20.178Z,0
2018-05-21T00:12:46.319Z,0
2018-05-21T00:13:12.461Z,0
2018-05-21T00:13:38.599Z,0
2018-05-21T00:14:04.737Z,0
2018-05-21T00:14:30.903Z,0
2018-05-21T00:14:57.061Z,0
2018-05-21T00:15:23.203Z,0
2018-05-21T00:15:49.383Z,0
2018-05-21T00:16:15.521Z,0
2018-05-21T00:16:41.677Z,0
2018-05-21T00:17:07.844Z,0
2018-05-21T00:17:33.983Z,0
2018-05-21T00:18:00.121Z,0
2018-05-21T00:18:26.259Z,0
2018-05-21T00:18:52.399Z,0
2018-05-21T00:19:18.533Z,0
2018-05-21T00:19:44.672Z,0
2018-05-21T00:20:10.846Z,0
2018-05-21T00:20:36.986Z,0
2018-05-21T00:21:03.147Z,0
2018-05-21T00:21:29.285Z,0
2018-05-21T00:21:55.448Z,0
2018-05-21T00:22:21.582Z,0
2018-05-21T00:22:47.722Z,0
2018-05-21T00:23:13.860Z,0
2018-05-21T00:23:40.006Z,0
2018-05-21T00:24:06.188Z,0
2018-05-21T00:24:32.339Z,0
2018-05-21T00:24:58.481Z,0
2018-05-21T00:25:24.619Z,0
2018-05-21T00:25:50.752Z,0
2018-05-21T00:26:16.921Z,0
2018-05-21T00:26:43.063Z,0
2018-05-21T00:27:09.226Z,0
2018-05-21T00:27:35.363Z,0
2018-05-21T00:28:01.529Z,0
2018-05-21T00:28:27.697Z,0
2018-05-21T00:28:53.854Z,0
2018-05-21T00:29:19.994Z,0
2018-05-21T00:29:46.134Z,0
2018-05-21T00:30:12.265Z,0
2018-05-21T00:30:38.410Z,0
2018-05-21T00:31:04.550Z,0
2018-05-21T00:31:30.683Z,0
2018-05-21T00:31:56.821Z,0
2018-05-21T00:32:22.963Z,0
2018-05-21T00:32:49.119Z,0
2018-05-21T00:33:15.263Z,0
2018-05-21T00:33:41.401Z,0
2018-05-21T00:34:07.539Z,0
2018-05-21T00:34:33.671Z,0
2018-05-21T00:34:59.837Z,0
2018-05-21T00:35:25.999Z,0
2018-05-21T00:35:52.160Z,0
2018-05-21T00:36:18.323Z,0
2018-05-21T00:36:44.484Z,0
2018-05-21T00:37:10.630Z,0
2018-05-21T00:37:36.766Z,0
2018-05-21T00:38:02.901Z,0
2018-05-21T00:38:29.045Z,0
2018-05-21T00:38:55.186Z,0
2018-05-21T00:39:21.321Z,0
2018-05-21T00:39:47.467Z,0
2018-05-21T00:40:13.611Z,0
2018-05-21T00:40:39.746Z,0
2018-05-21T00:41:05.890Z,0
2018-05-21T00:41:32.043Z,0
2018-05-21T00:41:58.182Z,0
2018-05-21T00:42:24.315Z,0
2018-05-21T00:42:50.465Z,0
2018-05-21T00:43:16.600Z,0
2018-05-21T00:43:42.769Z,0
2018-05-21T00:44:08.958Z,0
2018-05-21T00:44:35.092Z,0
2018-05-21T00:45:01.232Z,0
2018-05-21T00:45:27.376Z,0
2018-05-21T00:45:53.511Z,0
2018-05-21T00:46:19.655Z,0
2018-05-21T00:46:45.791Z,0
2018-05-21T00:47:11.983Z,0
2018-05-21T00:47:38.131Z,0
2018-05-21T00:48:04.272Z,0
2018-05-21T00:48:30.403Z,0
2018-05-21T00:48:56.542Z,0
2018-05-21T00:49:22.680Z,0
2018-05-21T00:49:48.825Z,0
2018-05-21T00:50:14.961Z,0
2018-05-21T00:50:41.101Z,0
2018-05-21T00:51:07.252Z,0
2018-05-21T00:51:33.373Z,0
2018-05-21T00:51:59.514Z,0
2018-05-21T00:52:25.705Z,0
2018-05-21T00:52:51.855Z,0
2018-05-21T00:53:18.017Z,0
2018-05-21T00:53:44.152Z,0
2018-05-21T00:54:10.295Z,0
2018-05-21T00:54:36.464Z,0
2018-05-21T00:55:02.601Z,0
2018-05-21T00:55:28.765Z,0
2018-05-21T00:55:54.906Z,0
2018-05-21T00:56:21.041Z,0
2018-05-21T00:56:47.180Z,0
2018-05-21T00:57:13.326Z,0
2018-05-21T00:57:39.460Z,0
2018-05-21T00:58:05.604Z,0
2018-05-21T00:58:31.734Z,0
2018-05-21T00:58:57.897Z,0
2018-05-21T00:59:24.034Z,0
2018-05-21T00:59:50.196Z,0
2018-05-21T01:00:16.335Z,0
2018-05-21T01:00:42.474Z,0
2018-05-21T01:01:08.641Z,0
2018-05-21T01:01:34.807Z,0
2018-05-21T01:02:00.944Z,0
2018-05-21T01:02:27.081Z,0
2018-05-21T01:02:53.247Z,0
2018-05-21T01:03:19.404Z,0
2018-05-21T01:03:45.571Z,0
2018-05-21T01:04:11.704Z,0
2018-05-21T01:04:37.867Z,0
2018-05-21T01:05:04.044Z,0
2018-05-21T01:05:30.172Z,0
2018-05-21T01:05:56.308Z,0
2018-05-21T01:06:22.466Z,0
2018-05-21T01:06:48.609Z,0
2018-05-21T01:07:14.746Z,0
2018-05-21T01:07:40.885Z,0
2018-05-21T01:08:07.023Z,0
2018-05-21T01:08:33.173Z,0
2018-05-21T01:08:59.333Z,0
2018-05-21T01:09:25.541Z,0
2018-05-21T01:09:51.654Z,0
2018-05-21T01:10:17.796Z,0
2018-05-21T01:10:43.983Z,0
2018-05-21T01:11:10.126Z,0
2018-05-21T01:11:36.289Z,0
2018-05-21T01:12:02.419Z,0
2018-05-21T01:12:28.554Z,0
2018-05-21T01:12:54.695Z,0
2018-05-21T01:13:20.859Z,0
2018-05-21T01:13:47.026Z,0
2018-05-21T01:14:13.158Z,0
2018-05-21T01:14:39.292Z,0
2018-05-21T01:15:05.436Z,0
2018-05-21T01:15:31.604Z,0
2018-05-21T01:15:57.761Z,0
2018-05-21T01:16:23.921Z,0
2018-05-21T01:16:50.061Z,0
2018-05-21T01:17:16.233Z,0
2018-05-21T01:17:42.388Z,0
2018-05-21T01:18:08.529Z,0
2018-05-21T01:18:34.667Z,0
2018-05-21T01:19:00.828Z,0
2018-05-21T01:19:26.984Z,0
2018-05-21T01:19:53.119Z,0
2018-05-21T01:20:19.251Z,0
2018-05-21T01:20:45.388Z,0
2018-05-21T01:21:11.527Z,0
2018-05-21T01:21:37.669Z,0
2018-05-21T01:22:03.824Z,0
2018-05-21T01:22:29.991Z,0
2018-05-21T01:22:56.155Z,0
2018-05-21T01:23:22.289Z,0
2018-05-21T01:23:48.428Z,0
2018-05-21T01:24:14.585Z,0
2018-05-21T01:24:40.726Z,0
2018-05-21T01:25:06.873Z,0
2018-05-21T01:25:33.015Z,0
2018-05-21T01:25:59.174Z,0
2018-05-21T01:26:25.317Z,0
2018-05-21T01:26:51.459Z,0
2018-05-21T01:27:17.598Z,0
2018-05-21T01:27:43.759Z,0
2018-05-21T01:28:09.906Z,0
2018-05-21T01:28:36.039Z,0
2018-05-21T01:29:02.211Z,0
2018-05-21T01:29:28.377Z,0
2018-05-21T01:29:54.507Z,0
2018-05-21T01:30:20.649Z,0
2018-05-21T01:30:46.791Z,0
2018-05-21T01:31:12.931Z,0
2018-05-21T01:31:39.066Z,0
2018-05-21T01:32:05.217Z,0
2018-05-21T01:32:31.351Z,0
2018-05-21T01:32:57.521Z,0
2018-05-21T01:33:23.676Z,0
2018-05-21T01:33:49.814Z,0
2018-05-21T01:34:15.955Z,0
2018-05-21T01:34:42.097Z,0
2018-05-21T01:35:08.259Z,0
2018-05-21T01:35:34.443Z,0
2018-05-21T01:36:00.584Z,0
2018-05-21T01:36:26.743Z,0
2018-05-21T01:36:52.902Z,0
2018-05-21T01:37:19.038Z,0
2018-05-21T01:37:45.203Z,0
2018-05-21T01:38:11.342Z,0
2018-05-21T01:38:37.478Z,0
2018-05-21T01:39:03.615Z,0
2018-05-21T01:39:29.751Z,0
2018-05-21T01:39:55.922Z,0
2018-05-21T01:40:22.084Z,0
2018-05-21T01:40:48.209Z,0
2018-05-21T01:41:14.334Z,0
2018-05-21T01:41:40.496Z,0
2018-05-21T01:42:06.634Z,0
2018-05-21T01:42:32.796Z,0
2018-05-21T01:42:58.932Z,0
2018-05-21T01:43:25.075Z,0
2018-05-21T01:43:51.216Z,0
2018-05-21T01:44:17.353Z,0
2018-05-21T01:44:43.519Z,0
2018-05-21T01:45:09.695Z,0
2018-05-21T01:45:35.832Z,0
2018-05-21T01:46:01.968Z,0
2018-05-21T01:46:28.132Z,0
2018-05-21T01:46:54.267Z,0
2018-05-21T01:47:20.418Z,0
2018-05-21T01:47:46.554Z,0
2018-05-21T01:48:12.750Z,0
2018-05-21T01:48:38.891Z,0
2018-05-21T01:49:05.029Z,0
2018-05-21T01:49:31.163Z,0
2018-05-21T01:49:57.302Z,0
2018-05-21T01:50:23.450Z,0
2018-05-21T01:50:49.606Z,0
2018-05-21T01:51:15.745Z,0
2018-05-21T01:51:41.910Z,0
2018-05-21T01:52:08.052Z,0
2018-05-21T01:52:34.190Z,0
2018-05-21T01:53:00.327Z,0
2018-05-21T01:53:26.461Z,0
2018-05-21T01:53:52.601Z,0
2018-05-21T01:54:18.738Z,0
2018-05-21T01:54:44.879Z,0
2018-05-21T01:55:11.014Z,0
2018-05-21T01:55:37.158Z,0
2018-05-21T01:56:03.287Z,0
2018-05-21T01:56:29.453Z,0
2018-05-21T01:56:55.585Z,0
2018-05-21T01:57:21.726Z,0
2018-05-21T01:57:47.880Z,0
2018-05-21T01:58:14.018Z,0
2018-05-21T01:58:40.154Z,0
2018-05-21T01:59:06.308Z,0
2018-05-21T01:59:32.451Z,0
2018-05-21T01:59:58.597Z,0
2018-05-21T02:00:24.733Z,0
2018-05-21T02:00:50.876Z,0
2018-05-21T02:01:17.017Z,0
2018-05-21T02:01:43.175Z,0
2018-05-21T02:02:09.335Z,0
2018-05-21T02:02:35.479Z,0
2018-05-21T02:03:01.622Z,0
2018-05-21T02:03:27.753Z,0
2018-05-21T02:03:53.919Z,0
2018-05-21T02:04:20.105Z,0
2018-05-21T02:04:46.283Z,0
2018-05-21T02:05:12.411Z,0
2018-05-21T02:05:38.550Z,0
2018-05-21T02:06:04.714Z,0
2018-05-21T02:06:30.853Z,0
2018-05-21T02:06:57.042Z,0
2018-05-21T02:07:23.178Z,0
2018-05-21T02:07:49.308Z,0
2018-05-21T02:08:15.495Z,0
2018-05-21T02:08:41.621Z,0
2018-05-21T02:09:07.726Z,0
2018-05-21T02:09:33.866Z,0
2018-05-21T02:10:00.003Z,0
2018-05-21T02:10:26.137Z,0
2018-05-21T02:10:52.284Z,0
2018-05-21T02:11:18.418Z,0
2018-05-21T02:11:44.588Z,0
2018-05-21T02:12:10.723Z,0
2018-05-21T02:12:36.860Z,0
2018-05-21T02:13:03.030Z,0
2018-05-21T02:13:29.165Z,0
2018-05-21T02:13:55.296Z,0
2018-05-21T02:14:21.438Z,0
2018-05-21T02:14:47.576Z,0
2018-05-21T02:15:13.741Z,0
2018-05-21T02:15:39.910Z,0
2018-05-21T02:16:06.044Z,0
2018-05-21T02:16:32.178Z,0
2018-05-21T02:16:58.343Z,0
2018-05-21T02:17:24.487Z,0
2018-05-21T02:17:50.629Z,0
2018-05-21T02:18:16.765Z,0
2018-05-21T02:18:42.905Z,0
2018-05-21T02:19:09.070Z,0
2018-05-21T02:19:35.237Z,0
2018-05-21T02:20:01.463Z,0
2018-05-21T02:20:27.574Z,0
2018-05-21T02:20:53.735Z,0
2018-05-21T02:21:19.876Z,0
2018-05-21T02:21:46.010Z,0
2018-05-21T02:22:12.156Z,0
2018-05-21T02:22:38.285Z,0
2018-05-21T02:23:04.456Z,0
2018-05-21T02:23:30.585Z,0
2018-05-21T02:23:56.740Z,0
2018-05-21T02:24:22.874Z,0
2018-05-21T02:24:49.015Z,0
2018-05-21T02:25:15.189Z,0
2018-05-21T02:25:41.332Z,0
2018-05-21T02:26:07.485Z,0
2018-05-21T02:26:33.643Z,0
2018-05-21T02:26:59.890Z,0
2018-05-21T02:27:26.013Z,0
2018-05-21T02:27:52.160Z,0
2018-05-21T02:28:18.295Z,0
2018-05-21T02:28:44.432Z,0
2018-05-21T02:29:10.572Z,0
2018-05-21T02:29:36.714Z,0
2018-05-21T02:30:02.857Z,0
2018-05-21T02:30:29.013Z,0
2018-05-21T02:30:55.148Z,0
2018-05-21T02:31:21.326Z,0
2018-05-21T02:31:47.506Z,0
2018-05-21T02:32:13.673Z,0
2018-05-21T02:32:39.818Z,0
2018-05-21T02:33:05.953Z,0
2018-05-21T02:33:32.115Z,0
2018-05-21T02:33:58.279Z,0
2018-05-21T02:34:24.464Z,0
2018-05-21T02:34:50.662Z,0
2018-05-21T02:35:16.832Z,0
2018-05-21T02:35:43.027Z,0
2018-05-21T02:36:09.191Z,0
2018-05-21T02:36:35.357Z,0
2018-05-21T02:37:01.524Z,0
2018-05-21T02:37:27.660Z,0
2018-05-21T02:37:53.821Z,0
2018-05-21T02:38:20.000Z,0
2018-05-21T02:38:46.141Z,0
2018-05-21T02:39:12.277Z,0
2018-05-21T02:39:38.463Z,0
2018-05-21T02:40:04.598Z,0
2018-05-21T02:40:30.787Z,0
2018-05-21T02:40:56.927Z,0
2018-05-21T02:41:23.121Z,0
2018-05-21T02:41:49.268Z,0
2018-05-21T02:42:15.434Z,0
2018-05-21T02:42:41.594Z,0
2018-05-21T02:43:07.738Z,0
2018-05-21T02:43:33.898Z,0
2018-05-21T02:44:00.067Z,0
2018-05-21T02:44:26.212Z,0
2018-05-21T02:44:52.341Z,0
2018-05-21T02:45:18.479Z,0
2018-05-21T02:45:44.612Z,0
2018-05-21T02:46:10.747Z,0
2018-05-21T02:46:36.890Z,0
2018-05-21T02:47:03.050Z,0
2018-05-21T02:47:29.182Z,0
2018-05-21T02:47:55.324Z,0
2018-05-21T02:48:21.464Z,0
2018-05-21T02:48:47.622Z,0
2018-05-21T02:49:13.757Z,0
2018-05-21T02:49:39.903Z,0
2018-05-21T02:50:06.065Z,0
2018-05-21T02:50:32.224Z,0
2018-05-21T02:50:58.385Z,0
2018-05-21T02:51:24.529Z,0
2018-05-21T02:51:50.668Z,0
2018-05-21T02:52:16.810Z,0
2018-05-21T02:52:42.946Z,0
2018-05-21T02:53:09.078Z,0
2018-05-21T02:53:35.223Z,0
2018-05-21T02:54:01.359Z,0
2018-05-21T02:54:27.497Z,0
2018-05-21T02:54:53.638Z,0
2018-05-21T02:55:19.848Z,0
2018-05-21T02:55:46.009Z,0
2018-05-21T02:56:12.154Z,0
2018-05-21T02:56:38.338Z,0
2018-05-21T02:57:04.502Z,0
2018-05-21T02:57:30.648Z,0
2018-05-21T02:57:56.831Z,0
2018-05-21T02:58:22.971Z,0
2018-05-21T02:58:49.115Z,0
2018-05-21T02:59:15.273Z,0
2018-05-21T02:59:41.414Z,0
2018-05-21T03:00:07.569Z,0
2018-05-21T03:00:33.712Z,0
2018-05-21T03:00:59.848Z,0
2018-05-21T03:01:25.986Z,0
2018-05-21T03:01:52.175Z,0
2018-05-21T03:02:18.415Z,0
2018-05-21T03:02:44.708Z,0
2018-05-21T03:03:11.038Z,0
2018-05-21T03:03:37.320Z,0
2018-05-21T03:04:03.656Z,0
2018-05-21T03:04:29.846Z,0
2018-05-21T03:04:55.988Z,0
2018-05-21T03:05:22.130Z,0
2018-05-21T03:05:48.323Z,0
2018-05-21T03:06:14.460Z,0
2018-05-21T03:06:40.632Z,0
2018-05-21T03:07:06.785Z,0
2018-05-21T03:07:32.927Z,0
2018-05-21T03:07:59.091Z,0
2018-05-21T03:08:25.232Z,0
2018-05-21T03:08:51.372Z,0
2018-05-21T03:09:17.530Z,0
2018-05-21T03:09:43.670Z,0
2018-05-21T03:10:09.849Z,0
2018-05-21T03:10:35.994Z,0
2018-05-21T03:11:02.127Z,0
2018-05-21T03:11:28.275Z,0
2018-05-21T03:11:54.412Z,0
2018-05-21T03:12:20.547Z,0
2018-05-21T03:12:46.682Z,0
2018-05-21T03:13:12.829Z,0
2018-05-21T03:13:38.967Z,0
2018-05-21T03:14:05.099Z,0
2018-05-21T03:14:31.268Z,0
2018-05-21T03:14:57.411Z,0
2018-05-21T03:15:23.551Z,0
2018-05-21T03:15:49.690Z,0
2018-05-21T03:16:15.828Z,0
2018-05-21T03:16:41.970Z,0
2018-05-21T03:17:08.114Z,0
2018-05-21T03:17:34.252Z,0
2018-05-21T03:18:00.392Z,0
2018-05-21T03:18:26.529Z,0
2018-05-21T03:18:52.671Z,5
2018-05-21T03:19:18.810Z,5
2018-05-21T03:19:44.976Z,5
2018-05-21T03:20:11.104Z,5
2018-05-21T03:20:37.242Z,5
2018-05-21T03:21:03.391Z,5
2018-05-21T03:21:29.527Z,5
2018-05-21T03:21:55.660Z,5
2018-05-21T03:22:21.799Z,5
2018-05-21T03:22:47.945Z,5
2018-05-21T03:23:14.080Z,5
2018-05-21T03:23:40.251Z,5
2018-05-21T03:24:06.395Z,5
2018-05-21T03:24:32.556Z,5
2018-05-21T03:24:58.694Z,5
2018-05-21T03:25:24.839Z,5
2018-05-21T03:25:50.977Z,5
2018-05-21T03:26:17.147Z,5
2018-05-21T03:26:43.286Z,10
2018-05-21T03:27:09.428Z,10
2018-05-21T03:27:35.558Z,10
2018-05-21T03:28:01.702Z,10
2018-05-21T03:28:27.864Z,10
2018-05-21T03:28:54.024Z,10
2018-05-21T03:29:20.156Z,10
2018-05-21T03:29:46.305Z,10
2018-05-21T03:30:12.441Z,10
2018-05-21T03:30:38.602Z,10
2018-05-21T03:31:04.787Z,10
2018-05-21T03:31:30.981Z,10
2018-05-21T03:31:57.135Z,10
2018-05-21T03:32:23.278Z,15
2018-05-21T03:32:49.408Z,15
2018-05-21T03:33:15.551Z,15
2018-05-21T03:33:41.740Z,15
2018-05-21T03:34:07.876Z,15
2018-05-21T03:34:34.016Z,15
2018-05-21T03:35:00.210Z,15
2018-05-21T03:35:26.354Z,15
2018-05-21T03:35:52.519Z,15
2018-05-21T03:36:18.656Z,15
2018-05-21T03:36:44.791Z,20
2018-05-21T03:37:10.932Z,20
2018-05-21T03:37:37.100Z,20
2018-05-21T03:38:03.243Z,20
2018-05-21T03:38:29.381Z,20
2018-05-21T03:38:55.520Z,20
2018-05-21T03:39:21.659Z,20
2018-05-21T03:39:47.821Z,20
2018-05-21T03:40:13.953Z,20
2018-05-21T03:40:40.139Z,25
2018-05-21T03:41:06.301Z,25
2018-05-21T03:41:32.442Z,25
2018-05-21T03:41:58.601Z,25
2018-05-21T03:42:24.738Z,25
2018-05-21T03:42:50.879Z,25
2018-05-21T03:43:17.047Z,25
2018-05-21T03:43:43.230Z,25
2018-05-21T03:44:09.368Z,30
2018-05-21T03:44:35.508Z,30
2018-05-21T03:45:01.673Z,30
2018-05-21T03:45:27.871Z,30
2018-05-21T03:45:54.030Z,30
2018-05-21T03:46:20.174Z,30
2018-05-21T03:46:46.336Z,30
2018-05-21T03:47:12.494Z,30
2018-05-21T03:47:38.610Z,35
2018-05-21T03:48:04.755Z,35
2018-05-21T03:48:30.888Z,35
2018-05-21T03:48:57.030Z,35
2018-05-21T03:49:23.170Z,35
2018-05-21T03:49:49.318Z,35
2018-05-21T03:50:15.469Z,35
2018-05-21T03:50:41.636Z,35
2018-05-21T03:51:07.777Z,40
2018-05-21T03:51:33.921Z,40
2018-05-21T03:52:00.062Z,40
2018-05-21T03:52:26.209Z,40
2018-05-21T03:52:52.384Z,40
2018-05-21T03:53:18.531Z,40
2018-05-21T03:53:44.671Z,45
2018-05-21T03:54:10.811Z,45
2018-05-21T03:54:36.946Z,50
2018-05-21T03:55:03.083Z,50
2018-05-21T03:55:29.219Z,50
2018-05-21T03:55:55.353Z,50
2018-05-21T03:56:21.495Z,50
2018-05-21T03:56:47.633Z,45
2018-05-21T03:57:13.787Z,50
2018-05-21T03:57:39.941Z,50
2018-05-21T03:58:06.070Z,50
2018-05-21T03:58:32.215Z,50
2018-05-21T03:58:58.356Z,50
2018-05-21T03:59:24.495Z,50
2018-05-21T03:59:50.631Z,50
2018-05-21T04:00:16.792Z,55
2018-05-21T04:00:42.927Z,55
2018-05-21T04:01:09.141Z,55
2018-05-21T04:01:35.301Z,55
2018-05-21T04:02:01.447Z,55
2018-05-21T04:02:27.582Z,55
2018-05-21T04:02:53.720Z,55
2018-05-21T04:03:19.853Z,60
2018-05-21T04:03:45.988Z,60
2018-05-21T04:04:12.135Z,60
2018-05-21T04:04:38.265Z,60
2018-05-21T04:05:04.407Z,60
2018-05-21T04:05:30.580Z,60
2018-05-21T04:05:56.711Z,60
2018-05-21T04:06:22.848Z,65
2018-05-21T04:06:49.011Z,65
2018-05-21T04:07:15.188Z,65
2018-05-21T04:07:41.320Z,65
2018-05-21T04:08:07.460Z,65
2018-05-21T04:08:33.599Z,65
2018-05-21T04:08:59.729Z,65
2018-05-21T04:09:25.892Z,70
2018-05-21T04:09:52.050Z,70
2018-05-21T04:10:18.234Z,70
2018-05-21T04:10:44.375Z,70
2018-05-21T04:11:10.537Z,70
2018-05-21T04:11:36.678Z,70
2018-05-21T04:12:02.819Z,70
2018-05-21T04:12:28.951Z,75
2018-05-21T04:12:55.093Z,75
2018-05-21T04:13:21.280Z,75
2018-05-21T04:13:47.417Z,75
2018-05-21T04:14:13.556Z,75
2018-05-21T04:14:39.692Z,75
2018-05-21T04:15:05.835Z,80
2018-05-21T04:15:31.999Z,80
2018-05-21T04:15:58.136Z,80
2018-05-21T04:16:24.272Z,80
2018-05-21T04:16:50.423Z,80
2018-05-21T04:17:16.561Z,80
2018-05-21T04:17:42.702Z,80
2018-05-21T04:18:08.864Z,85
2018-05-21T04:18:35.031Z,85
2018-05-21T04:19:01.168Z,85
2018-05-21T04:19:27.325Z,85
2018-05-21T04:19:53.471Z,85
2018-05-21T04:20:19.610Z,85
2018-05-21T04:20:45.790Z,90
2018-05-21T04:21:11.926Z,90
2018-05-21T04:21:38.060Z,90
2018-05-21T04:22:04.197Z,90
2018-05-21T04:22:30.339Z,90
2018-05-21T04:22:56.502Z,90
2018-05-21T04:23:22.641Z,95
2018-05-21T04:23:48.788Z,95
2018-05-21T04:24:14.967Z,95
2018-05-21T04:24:41.125Z,95
2018-05-21T04:25:07.290Z,95
2018-05-21T04:25:33.492Z,95
2018-05-21T04:25:59.596Z,100
2018-05-21T04:26:25.728Z,100
2018-05-21T04:26:51.867Z,100
2018-05-21T04:27:18.021Z,100
2018-05-21T04:27:44.144Z,100
2018-05-21T04:28:10.289Z,100
2018-05-21T04:28:36.452Z,105
2018-05-21T04:29:02.592Z,105
2018-05-21T04:29:28.730Z,105
2018-05-21T04:29:54.893Z,105
2018-05-21T04:30:21.056Z,105
2018-05-21T04:30:47.191Z,105
2018-05-21T04:31:13.334Z,110
2018-05-21T04:31:39.508Z,110
2018-05-21T04:32:05.649Z,110
2018-05-21T04:32:31.786Z,110
2018-05-21T04:32:57.925Z,110
2018-05-21T04:33:24.063Z,110
2018-05-21T04:33:50.201Z,115
2018-05-21T04:34:16.336Z,115
2018-05-21T04:34:42.515Z,115
2018-05-21T04:35:08.651Z,115
2018-05-21T04:35:34.786Z,115
2018-05-21T04:36:00.954Z,115
2018-05-21T04:36:27.153Z,115
2018-05-21T04:36:53.256Z,115
2018-05-21T04:37:19.398Z,115
2018-05-21T04:37:45.537Z,115
2018-05-21T04:38:11.672Z,115
2018-05-21T04:38:37.813Z,120
2018-05-21T04:39:03.946Z,120
2018-05-21T04:39:30.080Z,120
2018-05-21T04:39:56.224Z,120
2018-05-21T04:40:22.360Z,120
2018-05-21T04:40:48.500Z,120
2018-05-21T04:41:14.635Z,125
2018-05-21T04:41:40.771Z,125
2018-05-21T04:42:06.908Z,125
2018-05-21T04:42:33.047Z,125
2018-05-21T04:42:59.180Z,130
2018-05-21T04:43:25.345Z,130
2018-05-21T04:43:51.506Z,130
2018-05-21T04:44:17.646Z,130
2018-05-21T04:44:43.782Z,130
2018-05-21T04:45:09.917Z,135
2018-05-21T04:45:36.052Z,135
2018-05-21T04:46:02.196Z,140
2018-05-21T04:46:28.341Z,140
2018-05-21T04:46:54.475Z,145
2018-05-21T04:47:20.679Z,145
2018-05-21T04:47:46.748Z,150
2018-05-21T04:48:12.882Z,150
2018-05-21T04:48:39.022Z,155
2018-05-21T04:49:05.161Z,155
2018-05-21T04:49:31.301Z,155
2018-05-21T04:49:57.474Z,155
2018-05-21T04:50:23.614Z,155
2018-05-21T04:50:49.746Z,155
2018-05-21T04:51:15.886Z,160
2018-05-21T04:51:42.025Z,160
2018-05-21T04:52:08.171Z,160
2018-05-21T04:52:34.311Z,160
2018-05-21T04:53:00.454Z,160
2018-05-21T04:53:26.594Z,160
2018-05-21T04:53:52.735Z,160
2018-05-21T04:54:18.901Z,160
2018-05-21T04:54:45.042Z,160
2018-05-21T04:55:11.206Z,160
2018-05-21T04:55:37.348Z,160
2018-05-21T04:56:03.487Z,160
2018-05-21T04:56:29.626Z,160
2018-05-21T04:56:55.764Z,160
2018-05-21T04:57:21.898Z,160
2018-05-21T04:57:48.055Z,160
2018-05-21T04:58:14.190Z,160
2018-05-21T04:58:40.330Z,165
2018-05-21T04:59:06.468Z,165
2018-05-21T04:59:32.617Z,165
2018-05-21T04:59:58.749Z,165
2018-05-21T05:00:24.891Z,165
2018-05-21T05:00:51.021Z,165
2018-05-21T05:01:17.200Z,165
2018-05-21T05:01:43.363Z,165
2018-05-21T05:02:09.507Z,165
2018-05-21T05:02:35.643Z,165
2018-05-21T05:03:01.805Z,165
2018-05-21T05:03:27.945Z,170
2018-05-21T05:03:54.105Z,165
2018-05-21T05:04:20.246Z,170
2018-05-21T05:04:46.388Z,170
2018-05-21T05:05:12.524Z,170
2018-05-21T05:05:38.685Z,170
2018-05-21T05:06:04.827Z,170
2018-05-21T05:06:30.970Z,170
2018-05-21T05:06:57.107Z,170
2018-05-21T05:07:23.288Z,170
2018-05-21T05:07:49.426Z,170
2018-05-21T05:08:15.598Z,175
2018-05-21T05:08:41.736Z,175
2018-05-21T05:09:07.899Z,175
2018-05-21T05:09:34.032Z,175
2018-05-21T05:10:00.172Z,175
2018-05-21T05:10:26.311Z,175
2018-05-21T05:10:52.450Z,175
2018-05-21T05:11:18.590Z,175
2018-05-21T05:11:44.732Z,180
2018-05-21T05:12:10.866Z,180
2018-05-21T05:12:37.006Z,180
2018-05-21T05:13:03.147Z,180
2018-05-21T05:13:29.277Z,180
2018-05-21T05:13:55.440Z,180
2018-05-21T05:14:21.576Z,180
2018-05-21T05:14:47.719Z,180
2018-05-21T05:15:13.859Z,180
2018-05-21T05:15:39.993Z,185
2018-05-21T05:16:06.141Z,185
2018-05-21T05:16:32.278Z,185
2018-05-21T05:16:58.440Z,185
2018-05-21T05:17:24.601Z,185
2018-05-21T05:17:50.769Z,185
2018-05-21T05:18:16.902Z,185
2018-05-21T05:18:43.062Z,185
2018-05-21T05:19:09.230Z,190
2018-05-21T05:19:35.369Z,190
2018-05-21T05:20:01.540Z,190
2018-05-21T05:20:27.692Z,190
2018-05-21T05:20:53.855Z,190
2018-05-21T05:21:19.995Z,190
2018-05-21T05:21:46.136Z,190
2018-05-21T05:22:12.312Z,190
2018-05-21T05:22:38.446Z,190
2018-05-21T05:23:04.587Z,190
2018-05-21T05:23:30.722Z,195
2018-05-21T05:23:56.873Z,195
2018-05-21T05:24:23.048Z,195
2018-05-21T05:24:49.191Z,195
2018-05-21T05:25:15.353Z,195
2018-05-21T05:25:41.498Z,195
2018-05-21T05:26:07.662Z,195
2018-05-21T05:26:33.893Z,195
2018-05-21T05:26:59.961Z,195
2018-05-21T05:27:26.105Z,200
2018-05-21T05:27:52.246Z,200
2018-05-21T05:28:18.387Z,200
2018-05-21T05:28:44.529Z,200
2018-05-21T05:29:10.691Z,200
2018-05-21T05:29:36.833Z,200
2018-05-21T05:30:02.969Z,200
2018-05-21T05:30:29.139Z,200
2018-05-21T05:30:55.278Z,200
2018-05-21T05:31:21.416Z,205
2018-05-21T05:31:47.556Z,205
2018-05-21T05:32:13.700Z,205
2018-05-21T05:32:39.835Z,205
2018-05-21T05:33:05.979Z,205
2018-05-21T05:33:32.121Z,205
2018-05-21T05:33:58.257Z,205
2018-05-21T05:34:24.400Z,205
2018-05-21T05:34:50.541Z,205
2018-05-21T05:35:16.675Z,205
2018-05-21T05:35:42.808Z,210
2018-05-21T05:36:09.032Z,210
2018-05-21T05:36:35.107Z,210
2018-05-21T05:37:01.270Z,210
2018-05-21T05:37:27.433Z,210
2018-05-21T05:37:53.576Z,210
2018-05-21T05:38:19.709Z,210
2018-05-21T05:38:45.843Z,210
2018-05-21T05:39:12.005Z,210
2018-05-21T05:39:38.143Z,215
2018-05-21T05:40:04.279Z,215
2018-05-21T05:40:30.423Z,215
2018-05-21T05:40:56.563Z,215
2018-05-21T05:41:22.698Z,215
2018-05-21T05:41:48.838Z,215
2018-05-21T05:42:15.001Z,220
2018-05-21T05:42:41.167Z,215
2018-05-21T05:43:07.329Z,215
2018-05-21T05:43:33.489Z,220
2018-05-21T05:43:59.628Z,220
2018-05-21T05:44:25.768Z,220
2018-05-21T05:44:51.910Z,220
2018-05-21T05:45:18.073Z,220
2018-05-21T05:45:44.265Z,220
2018-05-21T05:46:10.395Z,220
2018-05-21T05:46:36.542Z,220
2018-05-21T05:47:02.676Z,220
2018-05-21T05:47:28.840Z,225
2018-05-21T05:47:54.986Z,225
2018-05-21T05:48:21.126Z,225
2018-05-21T05:48:47.393Z,225
2018-05-21T05:49:13.441Z,225
2018-05-21T05:49:39.586Z,225
2018-05-21T05:50:05.724Z,225
2018-05-21T05:50:31.862Z,225
2018-05-21T05:50:58.001Z,225
2018-05-21T05:51:24.139Z,230
2018-05-21T05:51:50.282Z,230
2018-05-21T05:52:16.439Z,230
2018-05-21T05:52:42.634Z,235
2018-05-21T05:53:08.764Z,230
2018-05-21T05:53:34.929Z,230
2018-05-21T05:54:01.094Z,230
2018-05-21T05:54:27.240Z,230
2018-05-21T05:54:53.379Z,235
2018-05-21T05:55:19.523Z,235
2018-05-21T05:55:45.666Z,235
2018-05-21T05:56:11.804Z,235
2018-05-21T05:56:37.963Z,235
2018-05-21T05:57:04.111Z,235
2018-05-21T05:57:30.268Z,235
2018-05-21T05:57:56.411Z,235
2018-05-21T05:58:22.544Z,240
2018-05-21T05:58:48.703Z,240
2018-05-21T05:59:14.842Z,240
2018-05-21T05:59:40.982Z,240
2018-05-21T06:00:07.119Z,240
2018-05-21T06:00:33.253Z,240
2018-05-21T06:00:59.419Z,240
2018-05-21T06:01:25.566Z,240
2018-05-21T06:01:51.712Z,245
2018-05-21T06:02:17.885Z,245
2018-05-21T06:02:44.206Z,245
2018-05-21T06:03:10.319Z,245
2018-05-21T06:03:36.591Z,245
2018-05-21T06:04:02.661Z,245
2018-05-21T06:04:28.801Z,245
2018-05-21T06:04:55.014Z,245
2018-05-21T06:05:21.207Z,245
2018-05-21T06:05:47.302Z,250
2018-05-21T06:06:13.431Z,250
2018-05-21T06:06:39.570Z,250
2018-05-21T06:07:05.703Z,250
2018-05-21T06:07:31.848Z,250
2018-05-21T06:07:58.013Z,250
2018-05-21T06:08:24.157Z,250
2018-05-21T06:08:50.296Z,250
2018-05-21T06:09:16.444Z,260
2018-05-21T06:09:42.600Z,260
2018-05-21T06:10:08.745Z,255
2018-05-21T06:10:34.908Z,255
2018-05-21T06:11:01.045Z,255
2018-05-21T06:11:27.206Z,255
2018-05-21T06:11:53.372Z,255
2018-05-21T06:12:19.515Z,260
2018-05-21T06:12:45.649Z,260
2018-05-21T06:13:11.787Z,260
2018-05-21T06:13:37.953Z,260
2018-05-21T06:14:04.074Z,260
2018-05-21T06:14:30.229Z,260
2018-05-21T06:14:56.393Z,260
2018-05-21T06:15:22.561Z,260
2018-05-21T06:15:48.723Z,265
2018-05-21T06:16:14.883Z,265